createdAt,value
2022-10-23T00:01:14.124Z,101506.63
2022-10-23T00:03:40.789Z,101512.13
2022-10-23T00:06:08.063Z,101508.72
2022-10-23T00:08:34.793Z,101504.59
2022-10-23T00:11:01.302Z,101512.22
2022-10-23T00:13:27.799Z,101510.91
2022-10-23T00:15:58.287Z,101520.03
2022-10-23T00:18:24.760Z,101516.50
2022-10-23T00:20:51.330Z,101505.47
2022-10-23T00:23:17.839Z,101516.91
2022-10-23T00:25:44.299Z,101523.13
2022-10-23T00:28:10.936Z,101523.34
2022-10-23T00:30:40.565Z,101513.50
2022-10-23T00:33:08.360Z,101515.72
2022-10-23T00:35:34.871Z,101512.63
2022-10-23T00:38:02.371Z,101523.56
2022-10-23T00:40:28.967Z,101518.09
2022-10-23T00:42:55.674Z,101524.06
2022-10-23T00:45:28.112Z,101532.00
2022-10-23T00:47:55.406Z,101526.91
2022-10-23T00:50:24.942Z,101521.59
2022-10-23T00:52:57.257Z,101532.75
2022-10-23T00:55:28.424Z,101528.66
2022-10-23T00:57:55.739Z,101532.19
2022-10-23T01:00:28.374Z,101526.44
2022-10-23T01:02:56.557Z,101532.78
2022-10-23T01:05:29.998Z,101533.03
2022-10-23T01:08:24.625Z,101529.88
2022-10-23T01:11:03.914Z,101535.47
2022-10-23T01:13:54.579Z,101533.66
2022-10-23T01:16:26.963Z,101539.38
2022-10-23T01:19:16.639Z,101531.78
2022-10-23T01:22:09.008Z,101537.53
2022-10-23T01:24:42.989Z,101534.47
2022-10-23T01:27:30.831Z,101528.69
2022-10-23T01:30:07.702Z,101529.94
2022-10-23T01:32:52.313Z,101528.50
2022-10-23T01:35:24.598Z,101518.88
2022-10-23T01:38:09.473Z,101518.25
2022-10-23T01:41:04.754Z,101515.16
2022-10-23T01:44:06.214Z,101512.72
2022-10-23T01:46:35.692Z,101516.41
2022-10-23T01:49:05.734Z,101511.25
2022-10-23T01:51:35.220Z,101509.41
2022-10-23T01:54:05.594Z,101515.16
2022-10-23T01:56:34.953Z,101516.81
2022-10-23T01:59:06.187Z,101510.63
2022-10-23T02:01:34.659Z,101520.72
2022-10-23T02:04:08.351Z,101521.53
2022-10-23T02:06:34.922Z,101519.25
2022-10-23T02:09:01.550Z,101518.88
2022-10-23T02:11:28.003Z,101522.75
2022-10-23T02:14:03.574Z,101517.84
2022-10-23T02:16:42.101Z,101521.13
2022-10-23T02:19:36.057Z,101521.31
2022-10-23T02:22:19.168Z,101517.41
2022-10-23T02:24:51.819Z,101509.19
2022-10-23T02:27:28.666Z,101515.78
2022-10-23T02:30:01.504Z,101515.97
2022-10-23T02:32:29.216Z,101520.50
2022-10-23T02:34:56.214Z,101526.22
2022-10-23T02:37:22.993Z,101517.63
2022-10-23T02:39:51.668Z,101522.38
2022-10-23T02:42:45.401Z,101520.09
2022-10-23T02:45:34.893Z,101520.69
2022-10-23T02:48:16.845Z,101522.97
2022-10-23T02:51:03.848Z,101518.84
2022-10-23T02:53:52.151Z,101520.50
2022-10-23T02:56:28.985Z,101529.31
2022-10-23T02:59:19.393Z,101517.63
2022-10-23T03:01:53.341Z,101525.19
2022-10-23T03:04:24.248Z,101518.03
2022-10-23T03:06:51.982Z,101525.19
2022-10-23T03:09:20.331Z,101522.53
2022-10-23T03:11:46.905Z,101522.75
2022-10-23T03:14:16.485Z,101529.50
2022-10-23T03:16:43.191Z,101537.72
2022-10-23T03:21:43.383Z,101530.13
2022-10-23T03:24:12.338Z,101532.63
2022-10-23T03:26:39.003Z,101519.66
2022-10-23T03:29:05.642Z,101535.91
2022-10-23T03:31:32.327Z,101533.44
2022-10-23T03:34:08.138Z,101532.19
2022-10-23T03:36:35.027Z,101530.34
2022-10-23T03:39:01.670Z,101539.16
2022-10-23T03:41:28.223Z,101536.31
2022-10-23T03:43:58.180Z,101535.69
2022-10-23T03:46:24.971Z,101546.72
2022-10-23T03:48:51.749Z,101534.66
2022-10-23T03:51:18.392Z,101531.38
2022-10-23T03:53:44.984Z,101526.25
2022-10-23T03:56:11.760Z,101532.41
2022-10-23T03:58:38.419Z,101526.84
2022-10-23T04:01:07.376Z,101525.63
2022-10-23T04:03:34.215Z,101525.63
2022-10-23T04:06:01.203Z,101526.44
2022-10-23T04:08:31.054Z,101526.66
2022-10-23T04:10:57.606Z,101522.34
2022-10-23T04:13:25.686Z,101523.16
2022-10-23T04:15:56.223Z,101520.91
2022-10-23T04:18:23.493Z,101526.41
2022-10-23T04:20:50.559Z,101522.88
2022-10-23T04:23:20.023Z,101530.28
2022-10-23T04:28:14.611Z,101529.44
2022-10-23T04:30:41.665Z,101533.16
2022-10-23T04:33:08.170Z,101543.03
2022-10-23T04:35:34.708Z,101541.00
2022-10-23T04:38:01.131Z,101545.06
2022-10-23T04:40:27.650Z,101546.53
2022-10-23T04:42:54.128Z,101549.19
2022-10-23T04:45:20.655Z,101540.91
2022-10-23T04:47:47.222Z,101541.06
2022-10-23T04:50:13.748Z,101538.84
2022-10-23T04:52:40.522Z,101541.72
2022-10-23T04:55:08.275Z,101538.78
2022-10-23T04:57:34.709Z,101543.16
2022-10-23T05:00:01.422Z,101543.53
2022-10-23T05:02:27.896Z,101537.59
2022-10-23T05:04:54.631Z,101538.03
2022-10-23T05:09:48.543Z,101534.56
2022-10-23T05:12:15.337Z,101540.94
2022-10-23T05:18:28.347Z,101538.22
2022-10-23T05:21:20.131Z,101529.13
2022-10-23T05:23:47.383Z,101537.22
2022-10-23T05:26:14.238Z,101545.00
2022-10-23T05:28:40.728Z,101535.94
2022-10-23T05:31:07.404Z,101531.44
2022-10-23T05:33:56.479Z,101533.88
2022-10-23T05:36:24.825Z,101530.41
2022-10-23T05:38:52.026Z,101531.69
2022-10-23T05:41:18.683Z,101527.72
2022-10-23T05:43:46.272Z,101531.97
2022-10-23T05:46:12.933Z,101531.78
2022-10-23T05:48:41.576Z,101530.75
2022-10-23T05:51:10.530Z,101545.19
2022-10-23T05:53:40.135Z,101545.56
2022-10-23T05:56:09.390Z,101555.31
2022-10-23T05:58:36.253Z,101555.16
2022-10-23T06:01:14.324Z,101552.50
2022-10-23T06:03:43.684Z,101562.16
2022-10-23T06:06:10.247Z,101558.19
2022-10-23T06:08:36.939Z,101563.91
2022-10-23T06:11:12.207Z,101558.38
2022-10-23T06:13:39.533Z,101562.03
2022-10-23T06:16:10.888Z,101566.91
2022-10-23T06:18:37.593Z,101577.47
2022-10-23T06:21:04.679Z,101583.22
2022-10-23T06:23:35.608Z,101584.31
2022-10-23T06:26:03.111Z,101593.84
2022-10-23T06:28:29.839Z,101589.53
2022-10-23T06:30:59.434Z,101598.94
2022-10-23T06:33:28.988Z,101604.69
2022-10-23T06:35:58.343Z,101608.78
2022-10-23T06:38:25.686Z,101616.59
2022-10-23T06:40:57.072Z,101616.53
2022-10-23T06:43:23.863Z,101623.16
2022-10-23T06:45:50.593Z,101622.53
2022-10-23T06:48:17.281Z,101631.59
2022-10-23T06:50:43.930Z,101626.66
2022-10-23T06:53:15.192Z,101628.50
2022-10-23T06:55:41.859Z,101630.09
2022-10-23T06:58:10.894Z,101624.88
2022-10-23T07:00:40.565Z,101630.66
2022-10-23T07:03:09.089Z,101625.56
2022-10-23T07:05:36.005Z,101625.56
2022-10-23T07:08:05.224Z,101633.56
2022-10-23T07:10:32.125Z,101634.31
2022-10-23T07:13:01.185Z,101637.63
2022-10-23T07:15:28.123Z,101623.91
2022-10-23T07:17:56.066Z,101625.31
2022-10-23T07:20:25.545Z,101632.13
2022-10-23T07:22:57.056Z,101633.16
2022-10-23T07:25:25.326Z,101639.09
2022-10-23T07:27:53.477Z,101642.34
2022-10-23T07:30:20.108Z,101635.22
2022-10-23T07:32:52.664Z,101631.53
2022-10-23T07:35:22.648Z,101624.97
2022-10-23T07:37:52.870Z,101624.78
2022-10-23T07:40:19.711Z,101632.97
2022-10-23T07:42:54.067Z,101637.84
2022-10-23T07:45:20.793Z,101642.63
2022-10-23T07:47:52.099Z,101642.84
2022-10-23T07:50:23.832Z,101644.09
2022-10-23T07:52:53.579Z,101638.69
2022-10-23T07:55:20.202Z,101635.69
2022-10-23T07:57:49.676Z,101640.00
2022-10-23T08:00:18.522Z,101640.00
2022-10-23T08:02:45.380Z,101635.88
2022-10-23T08:05:16.691Z,101636.91
2022-10-23T08:07:51.855Z,101643.06
2022-10-23T08:10:27.322Z,101644.34
2022-10-23T08:12:53.989Z,101643.72
2022-10-23T08:15:20.634Z,101634.66
2022-10-23T08:17:47.200Z,101641.88
2022-10-23T08:20:13.799Z,101634.22
2022-10-23T08:22:41.118Z,101628.31
2022-10-23T08:25:08.143Z,101648.88
2022-10-23T08:27:34.851Z,101647.00
2022-10-23T08:30:01.482Z,101653.97
2022-10-23T08:32:31.872Z,101652.09
2022-10-23T08:35:01.140Z,101644.84
2022-10-23T08:37:28.832Z,101657.81
2022-10-23T08:39:56.365Z,101657.41
2022-10-23T08:42:31.300Z,101655.72
2022-10-23T08:45:22.160Z,101654.88
2022-10-23T08:47:58.585Z,101644.19
2022-10-23T08:50:46.772Z,101648.50
2022-10-23T08:53:26.700Z,101648.16
2022-10-23T08:56:07.739Z,101648.25
2022-10-23T08:58:37.392Z,101650.66
2022-10-23T09:01:29.376Z,101653.97
2022-10-23T09:03:58.602Z,101650.50
2022-10-23T09:06:48.267Z,101648.81
2022-10-23T09:09:40.917Z,101645.81
2022-10-23T09:12:15.358Z,101644.78
2022-10-23T09:14:53.831Z,101643.13
2022-10-23T09:17:28.859Z,101646.00
2022-10-23T09:20:13.046Z,101647.63
2022-10-23T09:22:41.054Z,101645.25
2022-10-23T09:25:22.077Z,101644.41
2022-10-23T09:27:54.976Z,101642.09
2022-10-23T09:30:41.518Z,101632.31
2022-10-23T09:33:22.431Z,101631.28
2022-10-23T09:35:55.766Z,101631.28
2022-10-23T09:38:33.548Z,101642.53
2022-10-23T09:41:13.660Z,101635.44
2022-10-23T09:43:40.271Z,101630.63
2022-10-23T09:46:28.285Z,101630.06
2022-10-23T09:49:00.889Z,101636.56
2022-10-23T09:51:30.675Z,101635.31
2022-10-23T09:53:58.797Z,101639.03
2022-10-23T09:56:36.542Z,101634.94
2022-10-23T09:59:22.430Z,101634.03
2022-10-23T10:02:00.827Z,101630.78
2022-10-23T10:04:41.646Z,101628.28
2022-10-23T10:07:31.125Z,101633.69
2022-10-23T10:10:00.284Z,101629.22
2022-10-23T10:12:37.704Z,101630.78
2022-10-23T10:15:43.126Z,101643.75
2022-10-23T10:18:34.812Z,101636.63
2022-10-23T10:21:01.455Z,101638.97
2022-10-23T10:23:53.688Z,101638.34
2022-10-23T10:26:43.108Z,101640.72
2022-10-23T10:29:29.949Z,101634.66
2022-10-23T10:32:12.042Z,101635.72
2022-10-23T10:35:02.912Z,101635.84
2022-10-23T10:37:59.814Z,101639.34
2022-10-23T10:40:32.734Z,101632.91
2022-10-23T10:43:02.757Z,101624.84
2022-10-23T10:46:04.811Z,101629.28
2022-10-23T10:48:48.947Z,101622.84
2022-10-23T10:51:37.417Z,101614.09
2022-10-23T10:54:29.671Z,101621.81
2022-10-23T10:57:03.078Z,101620.84
2022-10-23T10:59:38.068Z,101615.38
2022-10-23T11:02:26.384Z,101608.38
2022-10-23T11:04:54.719Z,101609.53
2022-10-23T11:07:26.861Z,101609.63
2022-10-23T11:09:54.606Z,101604.94
2022-10-23T11:12:25.095Z,101605.44
2022-10-23T11:14:54.395Z,101603.78
2022-10-23T11:17:39.017Z,101596.91
2022-10-23T11:20:39.959Z,101596.09
2022-10-23T11:23:28.478Z,101596.78
2022-10-23T11:26:09.769Z,101590.59
2022-10-23T11:28:53.625Z,101590.59
2022-10-23T11:31:58.396Z,101581.13
2022-10-23T11:34:51.110Z,101583.09
2022-10-23T11:37:19.733Z,101570.25
2022-10-23T11:40:23.964Z,101574.66
2022-10-23T11:42:54.903Z,101580.41
2022-10-23T11:45:39.128Z,101581.47
2022-10-23T11:48:18.592Z,101572.44
2022-10-23T11:50:45.294Z,101575.41
2022-10-23T11:53:31.167Z,101570.63
2022-10-23T11:56:12.732Z,101567.94
2022-10-23T11:58:49.843Z,101565.97
2022-10-23T12:01:32.572Z,101559.16
2022-10-23T12:04:06.722Z,101560.22
2022-10-23T12:06:41.771Z,101555.50
2022-10-23T12:09:22.136Z,101558.72
2022-10-23T12:12:01.443Z,101552.03
2022-10-23T12:14:33.817Z,101550.97
2022-10-23T12:17:01.265Z,101546.78
2022-10-23T12:19:47.919Z,101550.72
2022-10-23T12:22:14.970Z,101548.75
2022-10-23T12:25:17.510Z,101536.34
2022-10-23T12:28:05.832Z,101535.22
2022-10-23T12:31:05.761Z,101533.91
2022-10-23T12:34:03.174Z,101533.53
2022-10-23T12:37:11.882Z,101537.06
2022-10-23T12:39:40.169Z,101534.38
2022-10-23T12:42:16.177Z,101530.97
2022-10-23T12:44:43.085Z,101537.53
2022-10-23T12:47:18.889Z,101531.56
2022-10-23T12:49:50.785Z,101532.88
2022-10-23T12:52:21.755Z,101523.50
2022-10-23T12:54:50.894Z,101528.66
2022-10-23T12:57:25.978Z,101517.63
2022-10-23T13:00:02.572Z,101523.28
2022-10-23T13:02:32.694Z,101523.00
2022-10-23T13:05:06.678Z,101523.28
2022-10-23T13:07:37.929Z,101519.28
2022-10-23T13:10:05.808Z,101516.41
2022-10-23T13:12:38.698Z,101514.75
2022-10-23T13:15:08.417Z,101511.03
2022-10-23T13:17:47.546Z,101511.34
2022-10-23T13:20:17.727Z,101508.44
2022-10-23T13:22:49.591Z,101508.78
2022-10-23T13:25:25.322Z,101504.34
2022-10-23T13:28:04.470Z,101498.28
2022-10-23T13:30:34.035Z,101499.78
2022-10-23T13:33:01.986Z,101495.13
2022-10-23T13:35:29.500Z,101495.94
2022-10-23T13:37:56.280Z,101497.00
2022-10-23T13:40:25.334Z,101485.66
2022-10-23T13:42:54.652Z,101488.34
2022-10-23T13:45:29.907Z,101487.53
2022-10-23T13:47:56.445Z,101486.00
2022-10-23T13:50:23.042Z,101489.75
2022-10-23T13:52:49.520Z,101487.88
2022-10-23T13:55:26.434Z,101488.00
2022-10-23T13:57:53.019Z,101482.97
2022-10-23T14:00:19.827Z,101479.59
2022-10-23T14:02:46.604Z,101479.00
2022-10-23T14:05:17.290Z,101486.25
2022-10-23T14:07:44.206Z,101481.59
2022-10-23T14:10:11.061Z,101482.41
2022-10-23T14:12:42.994Z,101476.56
2022-10-23T14:15:11.209Z,101484.28
2022-10-23T14:17:38.462Z,101487.56
2022-10-23T14:20:06.745Z,101481.22
2022-10-23T14:22:34.101Z,101477.25
2022-10-23T14:25:01.949Z,101484.38
2022-10-23T14:27:34.733Z,101483.09
2022-10-23T14:30:04.486Z,101468.25
2022-10-23T14:32:31.465Z,101473.25
2022-10-23T14:34:58.740Z,101465.44
2022-10-23T14:37:25.386Z,101474.31
2022-10-23T14:39:52.024Z,101473.84
2022-10-23T14:42:34.959Z,101464.66
2022-10-23T14:45:08.300Z,101483.09
2022-10-23T14:47:34.936Z,101481.56
2022-10-23T14:50:01.741Z,101487.31
2022-10-23T14:52:31.100Z,101479.84
2022-10-23T14:54:58.009Z,101479.63
2022-10-23T14:57:25.661Z,101487.09
2022-10-23T14:59:53.214Z,101482.06
2022-10-23T15:02:19.931Z,101480.06
2022-10-23T15:04:48.142Z,101481.25
2022-10-23T15:07:16.090Z,101479.72
2022-10-23T15:09:42.786Z,101480.53
2022-10-23T15:12:09.468Z,101473.53
2022-10-23T15:14:36.212Z,101477.97
2022-10-23T15:17:05.894Z,101477.03
2022-10-23T15:19:36.155Z,101476.34
2022-10-23T15:22:02.879Z,101475.06
2022-10-23T15:24:29.865Z,101483.56
2022-10-23T15:26:57.255Z,101477.16
2022-10-23T15:29:24.083Z,101478.56
2022-10-23T15:31:57.520Z,101478.13
2022-10-23T15:34:26.629Z,101477.38
2022-10-23T15:36:54.821Z,101474.97
2022-10-23T15:39:27.291Z,101468.63
2022-10-23T15:41:56.460Z,101468.53
2022-10-23T15:44:28.991Z,101468.97
2022-10-23T15:47:02.319Z,101466.78
2022-10-23T15:49:30.060Z,101473.66
2022-10-23T15:52:00.443Z,101471.28
2022-10-23T15:54:30.458Z,101468.81
2022-10-23T15:57:08.251Z,101474.31
2022-10-23T15:59:36.028Z,101482.63
2022-10-23T16:02:03.133Z,101472.22
2022-10-23T16:04:35.623Z,101473.72
2022-10-23T16:07:02.317Z,101479.28
2022-10-23T16:09:29.899Z,101478.25
2022-10-23T16:11:56.773Z,101485.97
2022-10-23T16:14:23.354Z,101484.56
2022-10-23T16:16:49.975Z,101482.19
2022-10-23T16:19:18.103Z,101490.47
2022-10-23T16:21:44.714Z,101494.66
2022-10-23T16:24:11.901Z,101492.66
2022-10-23T16:26:41.334Z,101494.53
2022-10-23T16:29:09.524Z,101497.41
2022-10-23T16:31:36.484Z,101500.56
2022-10-23T16:34:04.858Z,101502.06
2022-10-23T16:36:31.443Z,101505.66
2022-10-23T16:38:58.242Z,101507.19
2022-10-23T16:41:24.847Z,101503.91
2022-10-23T16:43:51.338Z,101505.84
2022-10-23T16:46:20.533Z,101507.31
2022-10-23T16:48:47.761Z,101506.88
2022-10-23T16:51:18.628Z,101505.09
2022-10-23T16:53:48.732Z,101510.22
2022-10-23T16:56:18.224Z,101513.28
2022-10-23T16:58:47.741Z,101521.84
2022-10-23T17:01:17.145Z,101521.47
2022-10-23T17:03:48.125Z,101522.59
2022-10-23T17:06:23.219Z,101521.88
2022-10-23T17:08:50.334Z,101526.25
2022-10-23T17:11:20.268Z,101528.09
2022-10-23T17:14:00.872Z,101530.56
2022-10-23T17:16:37.516Z,101529.00
2022-10-23T17:19:16.145Z,101537.72
2022-10-23T17:21:57.372Z,101526.41
2022-10-23T17:24:24.747Z,101535.47
2022-10-23T17:26:54.776Z,101533.31
2022-10-23T17:29:21.631Z,101540.22
2022-10-23T17:31:56.375Z,101544.53
2022-10-23T17:34:24.234Z,101541.13
2022-10-23T17:36:54.922Z,101543.66
2022-10-23T17:39:26.038Z,101550.81
2022-10-23T17:41:53.350Z,101550.81
2022-10-23T17:44:20.420Z,101552.59
2022-10-23T17:46:53.168Z,101537.53
2022-10-23T17:49:20.425Z,101544.25
2022-10-23T17:51:50.371Z,101535.97
2022-10-23T17:54:16.997Z,101539.53
2022-10-23T17:56:45.485Z,101539.63
2022-10-23T17:59:14.789Z,101535.28
2022-10-23T18:01:43.874Z,101545.66
2022-10-23T18:04:11.505Z,101547.31
2022-10-23T18:06:44.375Z,101556.63
2022-10-23T18:09:11.797Z,101546.75
2022-10-23T18:11:46.898Z,101543.25
2022-10-23T18:14:16.773Z,101550.47
2022-10-23T18:16:45.723Z,101545.72
2022-10-23T18:19:13.113Z,101549.28
2022-10-23T18:21:40.293Z,101542.72
2022-10-23T18:24:07.264Z,101541.03
2022-10-23T18:26:35.317Z,101538.97
2022-10-23T18:29:04.941Z,101537.81
2022-10-23T18:31:31.795Z,101537.38
2022-10-23T18:34:04.270Z,101531.84
2022-10-23T18:36:35.197Z,101539.00
2022-10-23T18:39:02.309Z,101535.94
2022-10-23T18:41:34.286Z,101545.00
2022-10-23T18:44:01.558Z,101543.97
2022-10-23T18:46:29.707Z,101544.63
2022-10-23T18:48:57.390Z,101541.09
2022-10-23T18:51:30.007Z,101530.41
2022-10-23T18:54:01.565Z,101535.41
2022-10-23T18:56:28.184Z,101529.44
2022-10-23T18:59:00.135Z,101531.41
2022-10-23T19:01:28.151Z,101533.69
2022-10-23T19:06:24.269Z,101530.88
2022-10-23T19:08:51.633Z,101533.38
2022-10-23T19:11:24.228Z,101525.66
2022-10-23T19:13:51.433Z,101525.06
2022-10-23T19:16:48.130Z,101530.25
2022-10-23T19:19:30.124Z,101520.44
2022-10-23T19:22:03.034Z,101531.97
2022-10-23T19:24:38.225Z,101528.50
2022-10-23T19:27:05.800Z,101532.84
2022-10-23T19:29:35.698Z,101543.75
2022-10-23T19:32:02.532Z,101547.03
2022-10-23T19:34:29.532Z,101542.09
2022-10-23T19:36:56.295Z,101541.94
2022-10-23T19:39:25.394Z,101541.38
2022-10-23T19:41:57.023Z,101546.94
2022-10-23T19:44:23.820Z,101541.00
2022-10-23T19:46:51.473Z,101546.34
2022-10-23T19:49:18.690Z,101542.63
2022-10-23T19:51:51.344Z,101548.19
2022-10-23T19:54:20.967Z,101540.63
2022-10-23T19:56:48.868Z,101540.63
2022-10-23T19:59:16.581Z,101537.31
2022-10-23T20:01:46.380Z,101538.16
2022-10-23T20:04:17.658Z,101527.00
2022-10-23T20:06:45.019Z,101528.63
2022-10-23T20:09:11.980Z,101525.75
2022-10-23T20:11:40.047Z,101529.25
2022-10-23T20:14:07.654Z,101536.88
2022-10-23T20:16:41.950Z,101542.88
2022-10-23T20:19:14.646Z,101534.00
2022-10-23T20:21:46.254Z,101543.91
2022-10-23T20:24:15.233Z,101545.97
2022-10-23T20:27:01.888Z,101530.75
2022-10-23T20:29:31.168Z,101534.47
2022-10-23T20:31:57.751Z,101540.63
2022-10-23T20:34:27.197Z,101522.97
2022-10-23T20:36:53.945Z,101531.00
2022-10-23T20:39:26.736Z,101553.41
2022-10-23T20:41:56.844Z,101545.19
2022-10-23T20:44:24.074Z,101545.69
2022-10-23T20:46:51.243Z,101548.38
2022-10-23T20:49:19.262Z,101543.59
2022-10-23T20:51:54.095Z,101550.81
2022-10-23T20:54:24.241Z,101549.34
2022-10-23T20:56:50.951Z,101533.94
2022-10-23T20:59:18.825Z,101538.88
2022-10-23T21:01:53.039Z,101554.75
2022-10-23T21:04:22.915Z,101552.06
2022-10-23T21:07:11.122Z,101555.78
2022-10-23T21:09:39.362Z,101553.72
2022-10-23T21:12:14.745Z,101555.19
2022-10-23T21:14:41.829Z,101557.22
2022-10-23T21:17:10.627Z,101556.41
2022-10-23T21:19:41.151Z,101555.38
2022-10-23T21:22:07.891Z,101548.41
2022-10-23T21:24:34.534Z,101544.06
2022-10-23T21:27:01.123Z,101543.00
2022-10-23T21:29:27.722Z,101541.38
2022-10-23T21:31:55.741Z,101544.22
2022-10-23T21:34:24.075Z,101541.38
2022-10-23T21:39:39.552Z,101534.63
2022-10-23T21:42:06.097Z,101526.81
2022-10-23T21:44:32.848Z,101528.91
2022-10-23T21:47:02.244Z,101534.25
2022-10-23T21:49:29.554Z,101526.84
2022-10-23T21:51:56.313Z,101530.53
2022-10-23T21:54:22.966Z,101539.75
2022-10-23T21:56:54.142Z,101539.31
2022-10-23T21:59:24.800Z,101535.84
2022-10-23T22:01:52.716Z,101540.81
2022-10-23T22:04:20.500Z,101538.72
2022-10-23T22:06:52.350Z,101540.19
2022-10-23T22:09:19.997Z,101530.13
2022-10-23T22:11:49.327Z,101520.69
2022-10-23T22:14:16.031Z,101529.31
2022-10-23T22:16:42.648Z,101530.09
2022-10-23T22:19:12.767Z,101529.22
2022-10-23T22:21:40.513Z,101524.72
2022-10-23T22:24:11.052Z,101524.34
2022-10-23T22:26:43.464Z,101523.69
2022-10-23T22:29:15.329Z,101523.06
2022-10-23T22:31:45.495Z,101528.88
2022-10-23T22:34:40.806Z,101529.47
2022-10-23T22:37:09.502Z,101530.06
2022-10-23T22:39:36.073Z,101535.59
2022-10-23T22:42:04.963Z,101532.31
2022-10-23T22:44:31.943Z,101532.94
2022-10-23T22:47:06.856Z,101535.66
2022-10-23T22:49:34.929Z,101537.06
2022-10-23T22:52:02.647Z,101523.28
2022-10-23T22:54:31.375Z,101526.66
2022-10-23T22:56:58.372Z,101536.28
2022-10-23T22:59:25.150Z,101536.69
2022-10-23T23:01:51.821Z,101542.03
2022-10-23T23:07:10.538Z,101556.63
2022-10-23T23:09:42.545Z,101552.78
2022-10-23T23:12:14.960Z,101547.84
2022-10-23T23:14:42.844Z,101534.44
2022-10-23T23:17:10.121Z,101536.03
2022-10-23T23:19:37.083Z,101528.50
2022-10-23T23:22:04.098Z,101523.97
2022-10-23T23:24:33.709Z,101518.63
2022-10-23T23:27:00.466Z,101522.75
2022-10-23T23:29:28.369Z,101526.06
2022-10-23T23:31:57.860Z,101537.59
2022-10-23T23:34:27.436Z,101529.81
2022-10-23T23:36:54.854Z,101524.47
2022-10-23T23:39:21.424Z,101522.00
2022-10-23T23:41:50.598Z,101525.50
2022-10-23T23:44:17.558Z,101523.41
2022-10-23T23:46:46.226Z,101531.03
2022-10-23T23:49:13.396Z,101526.50
2022-10-23T23:51:40.051Z,101530.41
2022-10-23T23:54:06.777Z,101523.06
2022-10-23T23:56:33.696Z,101522.84
2022-10-23T23:59:01.910Z,101515.78
